South Abington Township, Pennsylvania
Current Conditions -  °F | °C
As of 9:54 AM on Friday 19 Dec 2014 (Local Time) from KAVP Reporting Station
Overcast Overcast  
Wind Chill: 21°   Ceiling: 2400
Heat Index: 31°   Visibility: 10mi
Dew Point: 19°   Wind: 14mph
Humidity: 61%   Direction: 340°NNW
Pressure: 30.08"   Gusts: 18mph
Location:  41.4656°N, 75.7341°W
Report Text: KAVP 191454Z AUTO 34012G16KT 10SM OVC024 M01/M07 A3008 RMK AO2 SLP195 T10061072 53020
Loading
Personal Weather Stations






























Interactive Weather Map New forecast layout! Learn more

10-Day Weather Forecast

Advertisements
Track Severe Weather on mobile